Time;durP1;ratioP1;P1;durP2;ratioP2;P2;SDS_P1;SDS_P2;PMS_P1;PMS_P2;Temp;Humidity;BMP_temperature;BMP_pressure;BME280_temperature;BME280_humidity;BME280_pressure;Samples;Min_cycle;Max_cycle;Signal;HPM_P1;HPM_P2
2024/04/02 00:01:08;;;;;;;4.27;2.30;;;9.60;99.90;;;9.44;100.00;97480.09;4778828;29;20549;-72
2024/04/02 00:03:35;;;;;;;2.43;2.00;;;9.60;99.90;;;9.43;100.00;97490.59;4796947;29;20456;-73
2024/04/02 00:06:03;;;;;;;3.53;2.50;;;9.60;99.90;;;9.35;100.00;97485.09;4778948;29;20525;-73
2024/04/02 00:08:30;;;;;;;2.90;1.90;;;9.60;99.90;;;9.37;100.00;97478.88;4781755;29;20464;-73
2024/04/02 00:11:02;;;;;;;3.33;2.30;;;9.60;99.90;;;9.24;100.00;97485.84;4775490;29;20465;-73
2024/04/02 00:13:29;;;;;;;3.10;2.40;;;9.50;99.90;;;9.24;100.00;97472.88;4777251;29;20475;-73
2024/04/02 00:15:57;;;;;;;2.10;1.87;;;9.40;99.90;;;9.21;100.00;97487.81;4776295;29;20508;-73
2024/04/02 00:18:24;;;;;;;4.43;2.10;;;9.40;99.90;;;9.19;100.00;97482.75;4776497;29;20469;-72
2024/04/02 00:20:51;;;;;;;3.57;2.47;;;9.40;99.90;;;9.28;100.00;97487.28;4777209;29;20480;-73
2024/04/02 00:23:17;;;;;;;2.37;2.07;;;9.40;99.90;;;9.31;100.00;97481.06;4776950;29;20732;-73
2024/04/02 00:25:46;;;;;;;3.17;2.30;;;9.50;99.90;;;9.27;100.00;97493.41;4778172;29;20496;-73
2024/04/02 00:28:14;;;;;;;2.40;2.20;;;9.50;99.90;;;9.34;100.00;97486.03;4781821;29;20468;-73
2024/04/02 00:30:41;;;;;;;3.03;2.40;;;9.50;99.90;;;9.41;100.00;97484.66;4780505;29;20465;-73
2024/04/02 00:33:07;;;;;;;3.20;2.30;;;9.50;99.90;;;9.43;100.00;97485.41;4778236;29;20473;-72
2024/04/02 00:35:34;;;;;;;3.30;2.50;;;9.60;99.90;;;9.52;100.00;97486.53;4779309;29;20461;-73
2024/04/02 00:38:00;;;;;;;2.63;2.43;;;9.70;99.90;;;9.51;100.00;97492.66;4779048;29;21231;-73
2024/04/02 00:40:28;;;;;;;3.30;2.93;;;9.70;99.90;;;9.51;100.00;97503.00;4778584;29;21153;-73
2024/04/02 00:43:04;;;;;;;2.97;2.40;;;9.70;99.90;;;9.57;100.00;97498.22;4777747;29;20503;-72
2024/04/02 00:45:32;;;;;;;3.50;2.37;;;9.70;99.90;;;9.56;100.00;97496.56;4796170;29;20492;-73
2024/04/02 00:47:59;;;;;;;3.30;2.43;;;9.70;99.90;;;9.48;100.00;97499.69;4775037;29;20472;-72
2024/04/02 00:50:27;;;;;;;2.97;2.40;;;9.70;99.90;;;9.47;100.00;97495.44;4778533;29;21160;-73
2024/04/02 00:52:53;;;;;;;3.50;2.10;;;9.70;99.90;;;9.40;100.00;97496.81;4774931;29;21001;-73
2024/04/02 00:55:20;;;;;;;2.73;2.30;;;9.70;99.90;;;9.38;100.00;97506.47;4782516;29;20457;-73
2024/04/02 00:57:46;;;;;;;3.00;2.17;;;9.60;99.90;;;9.44;100.00;97506.03;4777930;29;20456;-73
2024/04/02 01:00:15;;;;;;;2.63;2.30;;;9.60;99.90;;;9.43;100.00;97514.75;4779389;29;20475;-73
2024/04/02 01:02:43;;;;;;;3.13;2.40;;;9.60;99.90;;;9.39;100.00;97512.50;4779848;29;20491;-73
2024/04/02 01:05:10;;;;;;;2.97;2.33;;;9.60;99.90;;;9.41;100.00;97506.25;4781558;29;20492;-73
2024/04/02 01:07:39;;;;;;;2.03;1.90;;;9.70;99.90;;;9.45;100.00;97505.13;4778407;29;20456;-73
2024/04/02 01:10:07;;;;;;;2.30;1.90;;;9.70;99.90;;;9.40;100.00;97508.97;4792976;29;20495;-73
2024/04/02 01:12:34;;;;;;;2.70;1.70;;;9.60;99.90;;;9.41;100.00;97521.81;4780070;29;21124;-73
2024/04/02 01:15:01;;;;;;;1.90;1.70;;;9.70;99.90;;;9.46;100.00;97524.94;4780913;29;20488;-72
2024/04/02 01:17:27;;;;;;;1.50;1.40;;;9.70;99.90;;;9.51;100.00;97531.53;4776625;29;21012;-73
2024/04/02 01:19:55;;;;;;;1.90;1.60;;;9.80;99.90;;;9.47;100.00;97523.97;4776298;29;20473;-73
2024/04/02 01:22:21;;;;;;;2.60;1.70;;;9.70;99.90;;;9.56;100.00;97521.66;4771631;29;20542;-73
2024/04/02 01:24:58;;;;;;;1.70;1.60;;;9.70;99.90;;;9.48;100.00;97528.22;4777416;29;20489;-73
2024/04/02 01:27:27;;;;;;;2.10;1.77;;;9.70;99.90;;;9.47;100.00;97526.56;4775256;29;20515;-73
2024/04/02 01:29:56;;;;;;;2.63;2.20;;;9.70;99.90;;;9.44;100.00;97531.16;4778706;29;20473;-73
2024/04/02 01:32:22;;;;;;;3.53;2.43;;;9.70;99.90;;;9.44;100.00;97519.00;4778625;29;20481;-73
2024/04/02 01:34:49;;;;;;;3.27;2.63;;;9.60;99.90;;;9.44;100.00;97526.78;4781848;29;20461;-73
2024/04/02 01:37:15;;;;;;;3.47;2.80;;;9.60;99.90;;;9.42;100.00;97531.25;4777571;29;20479;-74
2024/04/02 01:39:42;;;;;;;3.53;2.93;;;9.60;99.90;;;9.45;100.00;97545.78;4781847;29;20476;-73
2024/04/02 01:42:08;;;;;;;2.57;2.33;;;9.60;99.90;;;9.54;100.00;97544.31;4779718;29;20473;-72
2024/04/02 01:44:36;;;;;;;2.70;2.50;;;9.70;99.90;;;9.48;100.00;97541.19;4782473;29;20896;-74
2024/04/02 01:47:03;;;;;;;3.20;2.90;;;9.70;99.90;;;9.44;100.00;97541.53;4783956;29;20529;-73
2024/04/02 01:49:30;;;;;;;2.90;2.70;;;9.70;99.90;;;9.43;100.00;97540.69;4781518;29;20473;-73
2024/04/02 01:51:56;;;;;;;2.60;2.40;;;9.60;99.90;;;9.46;100.00;97545.69;4785064;29;20480;-73
2024/04/02 01:54:23;;;;;;;2.77;2.30;;;9.60;99.90;;;9.44;100.00;97550.13;4780766;29;20472;-72
2024/04/02 01:56:49;;;;;;;2.77;2.33;;;9.70;99.90;;;9.44;100.00;97542.34;4780270;29;20953;-72
2024/04/02 01:59:16;;;;;;;2.53;2.30;;;9.60;99.90;;;9.48;100.00;97548.97;4775147;29;20909;-72
2024/04/02 02:01:43;;;;;;;2.30;2.10;;;9.70;99.90;;;9.49;100.00;97555.81;4779966;29;20481;-73
2024/04/02 02:04:10;;;;;;;2.77;2.40;;;9.70;99.90;;;9.59;100.00;97565.56;4773597;29;20466;-72
2024/04/02 02:06:36;;;;;;;2.90;1.93;;;9.80;99.90;;;9.51;100.00;97570.47;4780932;29;20460;-73
2024/04/02 02:09:04;;;;;;;2.57;2.20;;;9.70;99.90;;;9.38;100.00;97571.31;4773280;29;20468;-73
2024/04/02 02:11:31;;;;;;;2.83;1.93;;;9.60;99.90;;;9.36;100.00;97565.38;4779858;29;20484;-72
2024/04/02 02:14:00;;;;;;;2.50;2.17;;;9.60;99.90;;;9.36;100.00;97561.97;4781360;29;20464;-72
2024/04/02 02:16:26;;;;;;;3.00;2.27;;;9.60;99.90;;;9.31;100.00;97564.88;4780435;29;20489;-73
2024/04/02 02:18:55;;;;;;;3.03;2.50;;;9.60;99.90;;;9.29;100.00;97561.56;4780621;29;20469;-72
2024/04/02 02:21:22;;;;;;;3.13;2.83;;;9.50;99.90;;;9.24;100.00;97558.44;4781120;29;20510;-72
2024/04/02 02:23:50;;;;;;;3.17;2.80;;;9.50;99.90;;;9.22;100.00;97551.69;4773595;29;20473;-72
2024/04/02 02:26:18;;;;;;;3.07;2.70;;;9.40;99.90;;;9.16;100.00;97558.13;4770860;29;20489;-72
2024/04/02 02:28:45;;;;;;;4.50;3.13;;;9.40;99.90;;;9.17;100.00;97567.56;4779512;29;20469;-74
2024/04/02 02:31:11;;;;;;;5.17;3.30;;;9.40;99.90;;;9.17;100.00;97570.16;4775629;29;20551;-72
2024/04/02 02:33:38;;;;;;;3.50;3.20;;;9.40;99.90;;;9.20;100.00;97569.13;4778642;29;20949;-71
2024/04/02 02:36:06;;;;;;;5.17;3.20;;;9.40;99.90;;;9.19;100.00;97575.25;4778576;29;20491;-74
2024/04/02 02:38:34;;;;;;;3.70;3.30;;;9.40;99.90;;;9.23;100.00;97569.75;4766562;29;21145;-73
2024/04/02 02:41:00;;;;;;;4.90;3.80;;;9.40;99.90;;;9.24;100.00;97578.38;4771309;29;20465;-74
2024/04/02 02:43:27;;;;;;;3.60;3.30;;;9.50;99.90;;;9.29;100.00;97579.69;4776290;29;20475;-73
2024/04/02 02:45:54;;;;;;;3.67;3.20;;;9.50;99.90;;;9.31;100.00;97567.47;4772972;29;20519;-74
2024/04/02 02:48:21;;;;;;;6.07;3.80;;;9.60;99.90;;;9.29;100.00;97573.69;4781438;29;20957;-74
2024/04/02 02:50:47;;;;;;;4.00;3.53;;;9.50;99.90;;;9.34;100.00;97581.97;4796426;29;20522;-74
2024/04/02 02:53:15;;;;;;;3.40;3.10;;;9.60;99.90;;;9.31;100.00;97582.19;4772854;29;20456;-74
2024/04/02 02:55:41;;;;;;;5.33;3.17;;;9.50;99.90;;;9.33;100.00;97578.59;4779914;29;20969;-74
2024/04/02 02:58:08;;;;;;;3.73;3.17;;;9.50;99.90;;;9.46;100.00;97586.34;4774308;29;20462;-74
2024/04/02 03:00:38;;;;;;;4.23;3.47;;;9.60;99.90;;;9.46;100.00;97594.97;4771619;29;20453;-74
2024/04/02 03:03:06;;;;;;;4.00;3.17;;;9.70;99.90;;;9.45;100.00;97585.50;4775845;29;20493;-74
2024/04/02 03:05:32;;;;;;;3.03;2.80;;;9.70;99.90;;;9.46;100.00;97599.31;4778682;29;20492;-74
2024/04/02 03:07:59;;;;;;;4.47;3.10;;;9.70;99.90;;;9.38;100.00;97610.22;4781234;29;20460;-74
2024/04/02 03:10:26;;;;;;;4.10;3.10;;;9.60;99.90;;;9.44;100.00;97595.97;4787280;29;20468;-74
2024/04/02 03:12:53;;;;;;;3.97;2.97;;;9.60;99.90;;;9.43;100.00;97613.31;4783633;29;20615;-74
2024/04/02 03:15:19;;;;;;;3.53;3.00;;;9.70;99.90;;;9.36;100.00;97624.19;4798488;29;20514;-74
2024/04/02 03:17:46;;;;;;;3.03;2.60;;;9.60;99.90;;;9.31;100.00;97626.28;4782840;29;20464;-74
2024/04/02 03:20:13;;;;;;;6.03;3.00;;;9.50;99.90;;;9.28;100.00;97621.28;4784831;29;20483;-74
2024/04/02 03:22:40;;;;;;;3.47;2.70;;;9.50;99.90;;;9.30;100.00;97622.03;4785317;29;20491;-74
2024/04/02 03:25:06;;;;;;;2.60;2.40;;;9.50;99.90;;;9.27;100.00;97630.81;4784541;29;21069;-74
2024/04/02 03:27:35;;;;;;;2.70;2.50;;;9.50;99.90;;;9.24;100.00;97628.47;4783885;29;20469;-74
2024/04/02 03:30:02;;;;;;;2.27;2.03;;;9.40;99.90;;;9.23;100.00;97638.91;4776900;29;20461;-74
2024/04/02 03:32:29;;;;;;;3.23;2.43;;;9.40;99.90;;;9.15;100.00;97647.22;4782940;29;20548;-74
2024/04/02 03:34:55;;;;;;;3.97;2.40;;;9.40;99.90;;;9.22;100.00;97652.81;4784704;29;20469;-74
2024/04/02 03:37:23;;;;;;;4.43;2.30;;;9.40;99.90;;;9.22;100.00;97648.47;4786824;29;20460;-73
2024/04/02 03:39:50;;;;;;;3.30;2.70;;;9.40;99.90;;;9.13;100.00;97643.06;4784536;29;20469;-73
2024/04/02 03:42:17;;;;;;;3.20;2.00;;;9.40;99.90;;;9.13;100.00;97651.66;4785852;29;20541;-73
2024/04/02 03:44:45;;;;;;;3.43;2.10;;;9.30;99.90;;;9.06;100.00;97650.41;4785987;29;20559;-74
2024/04/02 03:47:11;;;;;;;5.03;2.43;;;9.30;99.90;;;9.04;100.00;97637.56;4780044;29;20462;-74
2024/04/02 03:49:38;;;;;;;2.90;2.07;;;9.30;99.90;;;8.98;100.00;97631.97;4776448;29;20477;-74
2024/04/02 03:52:05;;;;;;;2.50;2.00;;;9.20;99.90;;;8.93;100.00;97639.19;4779252;29;20484;-73
2024/04/02 03:54:32;;;;;;;2.13;1.93;;;9.20;99.90;;;8.82;100.00;97633.88;4785710;29;20969;-74
2024/04/02 03:56:58;;;;;;;2.70;2.43;;;9.10;99.90;;;8.78;100.00;97635.81;4783608;29;20468;-74
2024/04/02 03:59:25;;;;;;;3.07;2.30;;;9.00;99.90;;;8.76;100.00;97634.28;4786957;29;20501;-75
2024/04/02 04:01:52;;;;;;;4.70;2.83;;;9.00;99.90;;;8.65;100.00;97648.75;4784441;29;20490;-74
2024/04/02 04:04:20;;;;;;;2.73;2.03;;;8.80;99.90;;;8.65;100.00;97640.97;4785456;29;20448;-74
2024/04/02 04:06:47;;;;;;;2.80;2.03;;;8.80;99.90;;;8.62;100.00;97645.53;4780018;29;20520;-74
2024/04/02 04:09:14;;;;;;;2.60;1.90;;;8.80;99.90;;;8.59;100.00;97646.56;4797415;29;20464;-74
2024/04/02 04:11:40;;;;;;;2.90;2.30;;;8.80;99.90;;;8.50;100.00;97649.75;4783362;29;20480;-74
2024/04/02 04:14:07;;;;;;;2.63;2.10;;;8.70;99.90;;;8.54;100.00;97640.84;4781339;29;20468;-74
2024/04/02 04:16:33;;;;;;;3.23;2.20;;;8.70;99.90;;;8.51;100.00;97642.78;4780299;29;20456;-74
2024/04/02 04:19:02;;;;;;;3.07;2.03;;;8.70;99.90;;;8.50;100.00;97654.09;4773834;29;20506;-74
2024/04/02 04:21:28;;;;;;;2.90;1.90;;;8.70;99.90;;;8.41;100.00;97652.91;4762916;30;20493;-74
2024/04/02 04:23:55;;;;;;;2.30;2.00;;;8.60;99.90;;;8.46;100.00;97650.84;4787668;29;20459;-73
2024/04/02 04:26:21;;;;;;;2.10;1.80;;;8.70;99.90;;;8.48;100.00;97653.34;4782198;29;20492;-73
2024/04/02 04:28:48;;;;;;;2.20;2.10;;;8.70;99.90;;;8.47;100.00;97656.88;4774421;29;21008;-74
2024/04/02 04:31:14;;;;;;;1.93;1.83;;;8.70;99.90;;;8.45;100.00;97662.13;4776716;29;20537;-74
2024/04/02 04:33:42;;;;;;;3.43;2.10;;;8.70;99.90;;;8.46;100.00;97660.38;4779669;29;20481;-74
2024/04/02 04:36:10;;;;;;;1.90;1.80;;;8.70;99.90;;;8.38;100.00;97653.09;4775369;29;21161;-74
2024/04/02 04:38:37;;;;;;;3.03;2.10;;;8.60;99.90;;;8.42;100.00;97664.94;4776511;29;20464;-74
2024/04/02 04:41:03;;;;;;;3.90;2.20;;;8.60;99.90;;;8.42;100.00;97664.09;4775928;29;20509;-74
2024/04/02 04:43:30;;;;;;;8.53;2.80;;;8.60;99.90;;;8.46;100.00;97652.63;4778264;29;20458;-74
2024/04/02 04:46:00;;;;;;;3.63;2.20;;;8.60;99.90;;;8.48;100.00;97656.78;4779261;29;21018;-74
2024/04/02 04:48:27;;;;;;;4.70;2.17;;;8.70;99.90;;;8.57;100.00;97668.31;4782941;29;20465;-74
2024/04/02 04:50:59;;;;;;;3.73;2.30;;;8.70;99.90;;;8.61;100.00;97669.78;4777293;29;20457;-74
2024/04/02 04:53:28;;;;;;;3.63;2.23;;;8.80;99.90;;;8.75;100.00;97676.66;4776074;29;20468;-74
2024/04/02 04:55:59;;;;;;;3.77;2.20;;;8.90;99.90;;;8.88;100.00;97690.47;4780009;29;20476;-74
2024/04/02 04:58:26;;;;;;;3.60;2.10;;;9.00;99.90;;;8.96;100.00;97696.00;4777921;29;20476;-74
2024/04/02 05:00:52;;;;;;;2.47;2.27;;;9.10;99.90;;;9.12;100.00;97701.03;4789576;29;20851;-74
2024/04/02 05:03:20;;;;;;;2.93;2.40;;;9.20;99.90;;;9.19;100.00;97689.34;4779597;29;20464;-74
2024/04/02 05:05:46;;;;;;;4.53;2.60;;;9.40;99.90;;;9.27;100.00;97693.06;4777462;29;20493;-74
2024/04/02 05:08:23;;;;;;;2.63;2.00;;;9.40;99.90;;;9.41;100.00;97690.38;4791547;29;20469;-74
2024/04/02 05:10:52;;;;;;;4.17;2.30;;;9.60;99.90;;;9.49;100.00;97708.03;4770037;29;20452;-74
2024/04/02 05:13:20;;;;;;;3.67;1.80;;;9.70;99.90;;;9.60;100.00;97715.09;4775659;29;20465;-74
2024/04/02 05:15:47;;;;;;;3.40;1.90;;;9.80;99.90;;;9.74;100.00;97699.44;4779808;29;20469;-74
2024/04/02 05:18:14;;;;;;;1.87;1.77;;;9.90;99.90;;;9.72;100.00;97711.69;4782708;29;20465;-74
2024/04/02 05:20:42;;;;;;;3.37;1.40;;;10.00;99.90;;;9.68;100.00;97724.00;4772787;29;20519;-74
2024/04/02 05:23:13;;;;;;;2.50;1.60;;;10.00;99.90;;;9.56;100.00;97713.63;4772708;29;20493;-73
2024/04/02 05:25:39;;;;;;;2.57;1.67;;;9.90;99.90;;;9.58;100.00;97722.16;4777721;29;20488;-74
2024/04/02 05:28:09;;;;;;;2.07;1.60;;;9.80;99.90;;;9.59;100.00;97719.47;4779331;29;20477;-74
2024/04/02 05:30:36;;;;;;;3.93;2.40;;;9.80;99.90;;;9.58;100.00;97720.41;4782512;29;20465;-74
2024/04/02 05:33:04;;;;;;;2.77;2.20;;;9.80;99.90;;;9.69;100.00;97717.06;4780435;29;20481;-74
2024/04/02 05:35:31;;;;;;;3.50;2.00;;;9.80;99.90;;;9.67;100.00;97729.34;4771865;29;20461;-74
2024/04/02 05:37:58;;;;;;;3.10;1.90;;;9.90;99.90;;;9.65;100.00;97726.00;4781280;29;20558;-74
2024/04/02 05:40:24;;;;;;;2.00;1.80;;;9.90;99.90;;;9.67;100.00;97727.56;4779084;29;20538;-74
2024/04/02 05:42:51;;;;;;;2.33;2.10;;;9.90;99.90;;;9.63;100.00;97723.50;4781098;29;20492;-74
2024/04/02 05:45:19;;;;;;;2.60;2.00;;;9.90;99.90;;;9.67;100.00;97742.31;4783234;29;20477;-74
2024/04/02 05:47:46;;;;;;;3.93;2.17;;;9.90;99.90;;;9.69;100.00;97745.59;4777996;29;20464;-74
2024/04/02 05:50:14;;;;;;;2.93;1.87;;;9.90;99.90;;;9.67;100.00;97747.50;4775237;29;20461;-74
2024/04/02 05:52:42;;;;;;;2.90;1.83;;;9.90;99.90;;;9.66;100.00;97753.63;4777005;29;20484;-74
2024/04/02 05:55:08;;;;;;;5.27;2.40;;;9.90;99.90;;;9.60;100.00;97759.22;4775169;29;20459;-74
2024/04/02 05:57:35;;;;;;;4.17;2.00;;;9.90;99.90;;;9.52;100.00;97762.31;4772500;29;20515;-73
2024/04/02 06:00:01;;;;;;;2.23;2.03;;;9.80;99.90;;;9.47;100.00;97770.38;4780342;29;21276;-74
2024/04/02 06:02:41;;;;;;;3.70;2.00;;;9.70;99.90;;;9.43;100.00;97750.78;4776999;29;20842;-74
2024/04/02 06:05:08;;;;;;;3.43;2.20;;;9.70;99.90;;;9.38;100.00;97762.38;4783149;29;20505;-74
2024/04/02 06:07:35;;;;;;;3.63;1.70;;;9.60;99.90;;;9.48;100.00;97763.44;4780381;29;20465;-74
2024/04/02 06:10:01;;;;;;;3.73;2.07;;;9.60;99.90;;;9.50;100.00;97769.34;4775199;29;20515;-74
2024/04/02 06:12:28;;;;;;;3.57;1.77;;;9.70;99.90;;;9.69;100.00;97767.19;4778324;29;20868;-75
2024/04/02 06:14:55;;;;;;;2.43;1.50;;;9.80;99.90;;;9.98;100.00;97775.63;4780670;29;20476;-75
2024/04/02 06:17:22;;;;;;;2.40;1.73;;;10.00;99.90;;;9.89;100.00;97771.06;4778523;29;20465;-74
2024/04/02 06:19:49;;;;;;;2.33;1.80;;;10.10;99.90;;;10.10;100.00;97779.97;4771708;29;20885;-74
2024/04/02 06:22:16;;;;;;;2.60;1.57;;;10.30;99.90;;;10.03;100.00;97788.28;4773531;29;20493;-74
2024/04/02 06:24:42;;;;;;;2.13;1.40;;;10.30;99.90;;;10.11;100.00;97783.41;4777649;29;20460;-74
2024/04/02 06:27:09;;;;;;;2.90;1.70;;;10.40;99.90;;;10.18;100.00;97788.13;4780891;29;20495;-74
2024/04/02 06:29:36;;;;;;;3.20;1.37;;;10.40;99.90;;;10.22;100.00;97781.81;4780313;29;20469;-74
2024/04/02 06:32:03;;;;;;;4.50;1.50;;;10.40;99.90;;;10.45;100.00;97780.19;4772432;29;20527;-74
2024/04/02 06:34:30;;;;;;;2.57;1.60;;;10.60;99.90;;;11.03;100.00;97782.13;4772894;29;20470;-75
2024/04/02 06:36:58;;;;;;;2.27;1.40;;;10.90;99.90;;;12.08;100.00;97776.94;4777239;29;20469;-74
2024/04/02 06:39:25;;;;;;;2.60;1.70;;;11.90;8.20;;;12.39;100.00;97774.59;4759003;30;20720;-74
2024/04/02 06:41:51;;;;;;;2.80;1.60;;;12.60;1.00;;;12.32;100.00;97774.22;4791810;29;20781;-74
2024/04/02 06:44:18;;;;;;;3.97;1.50;;;12.80;1.00;;;12.00;100.00;97784.50;4781934;29;20704;-74
2024/04/02 06:46:44;;;;;;;2.67;1.70;;;12.70;1.00;;;11.59;100.00;97773.72;4763675;29;20223;-74
2024/04/02 06:49:11;;;;;;;2.87;1.70;;;12.40;1.00;;;11.52;100.00;97773.34;4767922;29;21786;-74
2024/04/02 06:51:37;;;;;;;2.80;1.73;;;12.10;1.00;;;11.81;100.00;97779.88;4775274;29;20291;-74
2024/04/02 06:54:06;;;;;;;3.47;1.87;;;12.20;1.00;;;12.11;100.00;97776.69;4780842;29;20211;-74
2024/04/02 06:56:32;;;;;;;2.67;1.93;;;12.30;1.00;;;12.20;100.00;97777.78;4781482;29;20214;-74
2024/04/02 06:58:59;;;;;;;4.47;2.03;;;12.50;1.00;;;12.35;100.00;97789.63;4778699;29;20290;-74
2024/04/02 07:01:25;;;;;;;3.10;1.50;;;12.70;1.00;;;12.41;100.00;97789.16;4772607;29;20235;-74
2024/04/02 07:03:52;;;;;;;2.03;1.60;;;12.70;1.00;;;12.28;98.59;97778.03;4789900;29;20220;-74
2024/04/02 07:06:18;;;;;;;3.00;1.57;;;12.80;99.90;;;12.41;99.94;97798.75;4779315;29;20277;-74
2024/04/02 07:08:46;;;;;;;2.87;1.50;;;12.90;99.90;;;12.73;97.19;97804.06;4780212;29;20223;-74
2024/04/02 07:11:14;;;;;;;5.63;2.57;;;13.10;99.90;;;12.77;95.02;97806.34;4781590;29;20235;-74
2024/04/02 07:13:41;;;;;;;2.33;1.37;;;13.20;99.90;;;12.34;96.71;97795.78;4777456;29;20587;-74
2024/04/02 07:16:08;;;;;;;5.10;2.07;;;12.90;99.90;;;13.07;95.16;97797.03;4793232;29;20712;-74
2024/04/02 07:18:36;;;;;;;4.63;2.90;;;13.10;99.90;;;13.43;90.73;97788.88;4775170;29;20214;-74
2024/04/02 07:21:06;;;;;;;3.43;1.77;;;13.70;1.00;;;13.55;86.91;97802.72;4763321;29;20582;-74
2024/04/02 07:23:33;;;;;;;3.87;2.10;;;13.90;99.90;;;13.45;87.49;97800.03;4793030;29;20219;-75
2024/04/02 07:26:01;;;;;;;2.40;1.70;;;13.90;99.90;;;14.05;83.97;97807.19;4751097;29;20234;-74
2024/04/02 07:28:30;;;;;;;3.20;1.43;;;14.30;1.00;;;14.37;80.74;97808.91;4783248;29;20594;-74
2024/04/02 07:30:57;;;;;;;2.40;1.20;;;14.70;1.00;;;14.72;77.89;97801.53;4776113;29;20207;-74
2024/04/02 07:33:23;;;;;;;2.83;1.23;;;15.10;1.00;;;15.14;75.33;97804.81;4776157;29;20211;-75
2024/04/02 07:35:55;;;;;;;3.77;1.60;;;15.50;1.00;;;15.36;72.58;97807.16;4776774;29;20207;-74
2024/04/02 07:38:22;;;;;;;2.83;1.17;;;15.90;1.00;;;15.46;71.99;97801.94;4775569;29;20238;-74
2024/04/02 07:40:49;;;;;;;2.47;1.30;;;16.10;99.90;;;16.00;69.60;97790.06;4776191;29;20214;-74
2024/04/02 07:43:16;;;;;;;1.73;1.20;;;16.40;99.90;;;16.12;67.12;97805.50;4772660;29;20280;-75
2024/04/02 07:45:52;;;;;;;4.03;1.70;;;16.70;1.00;;;16.40;66.03;97800.31;4769793;29;20219;-74
2024/04/02 07:48:20;;;;;;;2.13;1.10;;;17.00;1.00;;;16.13;66.11;97806.31;4794414;29;20203;-75
2024/04/02 07:50:49;;;;;;;3.13;1.60;;;16.90;99.90;;;15.80;67.81;97806.78;4774474;29;20654;-74
2024/04/02 07:53:15;;;;;;;4.50;1.30;;;16.60;1.00;;;15.43;68.39;97812.66;4769839;29;20235;-74
2024/04/02 07:55:42;;;;;;;2.93;1.00;;;16.40;1.00;;;14.87;71.50;97828.13;4774475;29;20756;-74
2024/04/02 07:58:08;;;;;;;2.67;1.10;;;15.80;99.90;;;14.65;73.36;97810.84;4773311;29;20279;-74
2024/04/02 08:00:35;;;;;;;3.07;1.10;;;15.40;1.00;;;14.56;74.25;97806.41;4772989;29;20247;-74
2024/04/02 08:03:04;;;;;;;3.80;1.27;;;15.20;7.10;;;14.76;73.73;97810.75;4772379;29;20292;-74
2024/04/02 08:05:32;;;;;;;1.13;0.93;;;15.10;99.90;;;15.11;73.71;97822.56;4778369;29;20281;-74
2024/04/02 08:07:58;;;;;;;1.53;0.93;;;15.40;99.90;;;15.54;71.74;97814.38;4777235;29;20240;-74
2024/04/02 08:10:25;;;;;;;2.43;0.97;;;15.80;99.90;;;15.79;68.59;97828.72;4779932;29;20214;-74
2024/04/02 08:12:54;;;;;;;2.40;1.20;;;16.20;99.90;;;15.72;67.89;97834.50;4781369;29;20242;-75
2024/04/02 08:15:21;;;;;;;3.40;0.93;;;16.30;1.00;;;15.76;67.31;97814.13;4777190;29;20276;-75
2024/04/02 08:17:47;;;;;;;1.90;0.90;;;16.30;1.00;;;16.10;66.32;97831.03;4786046;29;20836;-74
2024/04/02 08:20:16;;;;;;;3.03;0.97;;;16.40;1.00;;;16.11;65.46;97813.53;4784620;29;20736;-75
2024/04/02 08:22:43;;;;;;;1.53;1.07;;;16.60;99.90;;;16.57;64.03;97811.88;4785358;29;20239;-75
2024/04/02 08:25:11;;;;;;;0.87;0.70;;;16.90;99.90;;;17.23;61.27;97818.59;4783101;29;20591;-74
2024/04/02 08:27:37;;;;;;;2.40;1.00;;;17.40;99.90;;;17.07;60.26;97823.69;4795556;29;20223;-74
2024/04/02 08:30:08;;;;;;;3.30;1.00;;;17.50;1.00;;;17.67;58.16;97816.13;4795007;29;20211;-74
2024/04/02 08:32:35;;;;;;;2.50;1.20;;;17.90;1.00;;;18.18;56.79;97819.81;4780674;29;20292;-76
2024/04/02 08:35:04;;;;;;;2.70;1.00;;;18.40;1.00;;;18.07;54.42;97826.97;4780248;29;20591;-73
2024/04/02 08:37:32;;;;;;;4.73;1.00;;;18.50;99.90;;;17.58;57.00;97840.63;4777178;29;20220;-75
2024/04/02 08:39:59;;;;;;;3.43;1.00;;;18.20;1.00;;;17.83;55.48;97842.56;4776815;29;20215;-74
2024/04/02 08:42:26;;;;;;;1.63;0.90;;;18.40;99.90;;;17.42;56.33;97845.75;4779022;29;20238;-75
2024/04/02 08:44:55;;;;;;;1.87;1.03;;;18.30;99.90;;;16.86;56.99;97841.47;4778947;29;20234;-74
2024/04/02 08:47:23;;;;;;;3.07;1.23;;;17.90;99.90;;;15.79;61.23;97853.13;4775514;29;20235;-74
2024/04/02 08:49:52;;;;;;;3.23;1.43;;;16.90;1.00;;;15.47;65.21;97860.38;4776898;29;20560;-74
2024/04/02 08:52:19;;;;;;;2.10;1.00;;;16.20;1.00;;;15.59;65.56;97838.38;4780700;29;20234;-74
2024/04/02 08:54:47;;;;;;;2.07;0.90;;;16.10;99.90;;;15.00;67.08;97864.56;4779305;29;20256;-74
2024/04/02 08:57:14;;;;;;;3.13;1.10;;;15.70;1.00;;;14.43;70.85;97863.31;4789492;29;20208;-74
2024/04/02 08:59:44;;;;;;;2.97;0.90;;;15.10;99.90;;;14.54;71.72;97865.84;4778064;29;20708;-74
2024/04/02 09:02:12;;;;;;;2.47;1.10;;;15.00;1.00;;;14.67;72.06;97866.47;4778482;29;20235;-75
2024/04/02 09:04:39;;;;;;;4.10;1.17;;;15.00;1.00;;;14.59;71.24;97868.91;4771124;29;20220;-74
2024/04/02 09:07:05;;;;;;;2.33;1.20;;;15.10;1.00;;;14.38;73.25;97855.84;4773683;29;20231;-74
2024/04/02 09:09:32;;;;;;;2.77;0.97;;;14.80;99.90;;;14.32;74.60;97871.19;4778977;29;20589;-74
2024/04/02 09:12:05;;;;;;;2.60;0.80;;;14.70;99.90;;;14.73;73.25;97865.13;4777769;29;20231;-74
2024/04/02 09:14:33;;;;;;;2.93;0.93;;;14.80;99.90;;;14.86;71.68;97874.41;4770885;29;20582;-74
2024/04/02 09:17:00;;;;;;;4.33;0.80;;;15.10;57.60;;;14.91;70.42;97885.31;4770324;29;20644;-74
2024/04/02 09:19:27;;;;;;;1.63;0.93;;;15.20;1.00;;;15.01;69.52;97879.28;4775836;29;20216;-74
2024/04/02 09:21:54;;;;;;;3.20;1.00;;;15.30;99.90;;;14.98;69.34;97881.22;4791314;29;20741;-74
2024/04/02 09:24:20;;;;;;;1.60;0.80;;;15.30;99.90;;;14.76;70.00;97881.38;4778407;29;20211;-74
2024/04/02 09:26:47;;;;;;;2.10;0.90;;;15.20;99.90;;;15.38;69.08;97883.81;4778369;29;20231;-74
2024/04/02 09:29:15;;;;;;;3.63;0.90;;;15.40;99.90;;;15.89;64.23;97858.38;4781614;29;20207;-76
2024/04/02 09:31:43;;;;;;;2.23;1.07;;;15.90;99.90;;;16.24;63.60;97871.75;4777885;29;20715;-74
2024/04/02 09:34:09;;;;;;;1.50;0.60;;;16.30;99.90;;;16.34;60.81;97875.16;4790367;29;20216;-74
2024/04/02 09:36:42;;;;;;;8.97;1.10;;;16.60;1.00;;;16.91;60.31;97866.31;4776393;29;20204;-74
2024/04/02 09:39:14;;;;;;;2.43;0.77;;;17.00;15.00;;;17.35;55.86;97863.06;4780246;29;20223;-74
2024/04/02 09:41:42;;;;;;;3.30;0.70;;;17.60;1.00;;;17.24;56.97;97867.53;4792017;29;20372;-74
2024/04/02 09:44:13;;;;;;;1.83;0.87;;;17.60;1.00;;;17.13;56.33;97873.00;4778737;29;20219;-74
2024/04/02 09:46:44;;;;;;;3.67;0.77;;;17.60;1.00;;;16.25;58.70;97877.81;4780161;29;20219;-74
2024/04/02 09:49:13;;;;;;;0.83;0.60;;;17.10;1.00;;;16.11;60.07;97882.50;4781187;29;20257;-74
2024/04/02 09:51:40;;;;;;;3.17;0.73;;;16.80;99.90;;;15.85;61.94;97883.19;4777769;29;20235;-74
2024/04/02 09:54:07;;;;;;;2.20;0.70;;;16.40;1.00;;;16.29;60.25;97880.00;4778748;29;20219;-74
2024/04/02 09:56:35;;;;;;;1.87;0.60;;;16.60;1.00;;;16.33;59.14;97896.28;4778102;29;20668;-74
2024/04/02 09:59:03;;;;;;;1.63;0.60;;;16.80;99.90;;;16.13;62.26;97908.56;4779576;29;20229;-74
2024/04/02 10:01:35;;;;;;;2.50;0.60;;;16.60;66.80;;;16.18;62.67;97901.13;4776805;29;20298;-75
2024/04/02 10:04:07;;;;;;;1.27;0.80;;;16.50;99.90;;;16.36;61.62;97907.31;4790933;29;20226;-74
2024/04/02 10:06:34;;;;;;;0.83;0.43;;;16.70;1.00;;;16.84;60.08;97893.28;4781347;29;20275;-74
2024/04/02 10:09:06;;;;;;;2.40;0.70;;;16.90;1.00;;;16.72;60.46;97904.94;4792413;29;20219;-74
2024/04/02 10:11:39;;;;;;;1.13;0.50;;;16.90;1.00;;;17.12;58.61;97900.22;4781195;29;20231;-74
2024/04/02 10:14:09;;;;;;;0.80;0.40;;;17.20;1.00;;;17.18;56.97;97886.50;4774866;29;20222;-74
2024/04/02 10:16:40;;;;;;;1.20;0.40;;;17.50;1.00;;;16.85;57.29;97897.56;4779015;29;20252;-74
2024/04/02 10:19:13;;;;;;;1.80;0.80;;;17.30;1.00;;;16.83;57.98;97892.47;4778442;29;20227;-74
2024/04/02 10:21:39;;;;;;;1.40;0.30;;;17.20;1.00;;;16.31;57.70;97903.47;4778376;29;20244;-74
2024/04/02 10:24:08;;;;;;;0.40;0.40;;;17.10;1.00;;;16.68;58.09;97906.19;4790831;29;20224;-74
2024/04/02 10:26:38;;;;;;;0.23;0.23;;;17.00;1.00;;;16.71;58.63;97911.16;4776044;29;20231;-75